sensor_id;sensor_type;location;lat;lon;timestamp;P1;durP1;ratioP1;P2;durP2;ratioP2
10637;SDS011;47007;49.252;8.904;2022-12-07T00:00:36;6.50;;;5.90;;
10637;SDS011;47007;49.252;8.904;2022-12-07T00:01:25;6.28;;;5.68;;
10637;SDS011;47007;49.252;8.904;2022-12-07T00:02:11;6.72;;;6.07;;
10637;SDS011;47007;49.252;8.904;2022-12-07T00:02:53;6.88;;;6.18;;
10637;SDS011;47007;49.252;8.904;2022-12-07T00:03:35;6.40;;;5.80;;
10637;SDS011;47007;49.252;8.904;2022-12-07T00:04:18;6.00;;;5.47;;
10637;SDS011;47007;49.252;8.904;2022-12-07T00:05:00;6.30;;;5.72;;
10637;SDS011;47007;49.252;8.904;2022-12-07T00:05:42;6.38;;;5.78;;
10637;SDS011;47007;49.252;8.904;2022-12-07T00:06:23;6.28;;;5.63;;
10637;SDS011;47007;49.252;8.904;2022-12-07T00:07:05;6.85;;;5.97;;
10637;SDS011;47007;49.252;8.904;2022-12-07T00:07:47;5.40;;;5.00;;
10637;SDS011;47007;49.252;8.904;2022-12-07T00:08:29;5.63;;;5.03;;
10637;SDS011;47007;49.252;8.904;2022-12-07T00:09:13;5.80;;;5.25;;
10637;SDS011;47007;49.252;8.904;2022-12-07T00:09:56;5.57;;;5.07;;
10637;SDS011;47007;49.252;8.904;2022-12-07T00:10:38;6.80;;;5.80;;
10637;SDS011;47007;49.252;8.904;2022-12-07T00:11:20;6.15;;;5.55;;
10637;SDS011;47007;49.252;8.904;2022-12-07T00:12:03;5.90;;;5.28;;
10637;SDS011;47007;49.252;8.904;2022-12-07T00:12:45;5.80;;;5.30;;
10637;SDS011;47007;49.252;8.904;2022-12-07T00:13:26;6.28;;;5.68;;
10637;SDS011;47007;49.252;8.904;2022-12-07T00:14:10;5.72;;;5.05;;
10637;SDS011;47007;49.252;8.904;2022-12-07T00:14:54;5.63;;;5.10;;
10637;SDS011;47007;49.252;8.904;2022-12-07T00:15:36;5.97;;;5.40;;
10637;SDS011;47007;49.252;8.904;2022-12-07T00:16:18;5.93;;;5.40;;
10637;SDS011;47007;49.252;8.904;2022-12-07T00:17:01;5.22;;;4.82;;
10637;SDS011;47007;49.252;8.904;2022-12-07T00:17:43;5.57;;;5.07;;
10637;SDS011;47007;49.252;8.904;2022-12-07T00:18:25;6.03;;;5.43;;
10637;SDS011;47007;49.252;8.904;2022-12-07T00:19:07;6.00;;;5.43;;
10637;SDS011;47007;49.252;8.904;2022-12-07T00:19:48;5.90;;;5.30;;
10637;SDS011;47007;49.252;8.904;2022-12-07T00:20:30;5.53;;;5.03;;
10637;SDS011;47007;49.252;8.904;2022-12-07T00:21:16;5.45;;;4.95;;
10637;SDS011;47007;49.252;8.904;2022-12-07T00:22:00;5.35;;;4.82;;
10637;SDS011;47007;49.252;8.904;2022-12-07T00:22:41;6.22;;;5.65;;
10637;SDS011;47007;49.252;8.904;2022-12-07T00:23:23;5.35;;;4.85;;
10637;SDS011;47007;49.252;8.904;2022-12-07T00:24:05;5.45;;;4.95;;
10637;SDS011;47007;49.252;8.904;2022-12-07T00:24:47;5.80;;;5.30;;
10637;SDS011;47007;49.252;8.904;2022-12-07T00:25:29;5.40;;;4.90;;
10637;SDS011;47007;49.252;8.904;2022-12-07T00:26:13;6.45;;;5.85;;
10637;SDS011;47007;49.252;8.904;2022-12-07T00:26:58;5.80;;;5.30;;
10637;SDS011;47007;49.252;8.904;2022-12-07T00:27:39;5.65;;;5.05;;
10637;SDS011;47007;49.252;8.904;2022-12-07T00:28:21;5.53;;;4.93;;
10637;SDS011;47007;49.252;8.904;2022-12-07T00:29:08;5.93;;;5.32;;
10637;SDS011;47007;49.252;8.904;2022-12-07T00:29:54;6.00;;;5.40;;
10637;SDS011;47007;49.252;8.904;2022-12-07T00:30:36;5.53;;;5.03;;
10637;SDS011;47007;49.252;8.904;2022-12-07T00:31:18;5.55;;;5.05;;
10637;SDS011;47007;49.252;8.904;2022-12-07T00:32:01;6.05;;;5.45;;
10637;SDS011;47007;49.252;8.904;2022-12-07T00:32:43;5.15;;;4.65;;
10637;SDS011;47007;49.252;8.904;2022-12-07T00:33:24;5.47;;;4.97;;
10637;SDS011;47007;49.252;8.904;2022-12-07T00:34:07;5.70;;;5.20;;
10637;SDS011;47007;49.252;8.904;2022-12-07T00:34:54;5.22;;;4.78;;
10637;SDS011;47007;49.252;8.904;2022-12-07T00:35:35;5.25;;;4.72;;
10637;SDS011;47007;49.252;8.904;2022-12-07T00:36:18;5.35;;;4.85;;
10637;SDS011;47007;49.252;8.904;2022-12-07T00:37:07;5.32;;;4.82;;
10637;SDS011;47007;49.252;8.904;2022-12-07T00:37:49;5.75;;;5.18;;
10637;SDS011;47007;49.252;8.904;2022-12-07T00:38:32;5.50;;;5.00;;
10637;SDS011;47007;49.252;8.904;2022-12-07T00:39:15;5.80;;;5.30;;
10637;SDS011;47007;49.252;8.904;2022-12-07T00:39:57;6.00;;;5.40;;
10637;SDS011;47007;49.252;8.904;2022-12-07T00:40:39;5.90;;;5.30;;
10637;SDS011;47007;49.252;8.904;2022-12-07T00:41:22;5.35;;;4.80;;
10637;SDS011;47007;49.252;8.904;2022-12-07T00:42:05;5.43;;;4.93;;
10637;SDS011;47007;49.252;8.904;2022-12-07T00:42:47;5.57;;;5.07;;
10637;SDS011;47007;49.252;8.904;2022-12-07T00:43:29;5.78;;;5.18;;
10637;SDS011;47007;49.252;8.904;2022-12-07T00:44:11;6.20;;;5.13;;
10637;SDS011;47007;49.252;8.904;2022-12-07T00:44:53;4.75;;;4.35;;
10637;SDS011;47007;49.252;8.904;2022-12-07T00:45:35;5.10;;;4.60;;
10637;SDS011;47007;49.252;8.904;2022-12-07T00:46:17;5.45;;;4.85;;
10637;SDS011;47007;49.252;8.904;2022-12-07T00:47:00;5.32;;;4.82;;
10637;SDS011;47007;49.252;8.904;2022-12-07T00:47:42;5.00;;;4.50;;
10637;SDS011;47007;49.252;8.904;2022-12-07T00:48:24;6.20;;;5.10;;
10637;SDS011;47007;49.252;8.904;2022-12-07T00:49:06;6.15;;;4.65;;
10637;SDS011;47007;49.252;8.904;2022-12-07T00:49:47;6.22;;;5.35;;
10637;SDS011;47007;49.252;8.904;2022-12-07T00:50:29;5.60;;;5.10;;
10637;SDS011;47007;49.252;8.904;2022-12-07T00:51:11;6.22;;;5.63;;
10637;SDS011;47007;49.252;8.904;2022-12-07T00:51:54;6.18;;;5.60;;
10637;SDS011;47007;49.252;8.904;2022-12-07T00:52:35;5.28;;;4.78;;
10637;SDS011;47007;49.252;8.904;2022-12-07T00:53:17;5.80;;;5.30;;
10637;SDS011;47007;49.252;8.904;2022-12-07T00:53:59;5.40;;;4.90;;
10637;SDS011;47007;49.252;8.904;2022-12-07T00:54:41;5.60;;;5.03;;
10637;SDS011;47007;49.252;8.904;2022-12-07T00:55:22;4.97;;;4.57;;
10637;SDS011;47007;49.252;8.904;2022-12-07T00:56:08;5.40;;;4.90;;
10637;SDS011;47007;49.252;8.904;2022-12-07T00:56:52;5.18;;;4.68;;
10637;SDS011;47007;49.252;8.904;2022-12-07T00:57:34;5.72;;;5.22;;
10637;SDS011;47007;49.252;8.904;2022-12-07T00:58:16;5.88;;;5.35;;
10637;SDS011;47007;49.252;8.904;2022-12-07T00:58:58;6.03;;;5.40;;
10637;SDS011;47007;49.252;8.904;2022-12-07T00:59:41;6.18;;;5.57;;
10637;SDS011;47007;49.252;8.904;2022-12-07T01:00:23;6.78;;;5.70;;
10637;SDS011;47007;49.252;8.904;2022-12-07T01:01:05;5.82;;;5.30;;
10637;SDS011;47007;49.252;8.904;2022-12-07T01:01:49;6.38;;;5.78;;
10637;SDS011;47007;49.252;8.904;2022-12-07T01:02:31;6.20;;;5.70;;
10637;SDS011;47007;49.252;8.904;2022-12-07T01:03:13;6.25;;;5.65;;
10637;SDS011;47007;49.252;8.904;2022-12-07T01:03:56;5.93;;;5.32;;
10637;SDS011;47007;49.252;8.904;2022-12-07T01:04:38;6.50;;;5.90;;
10637;SDS011;47007;49.252;8.904;2022-12-07T01:05:20;6.57;;;5.45;;
10637;SDS011;47007;49.252;8.904;2022-12-07T01:06:01;7.47;;;6.78;;
10637;SDS011;47007;49.252;8.904;2022-12-07T01:06:44;10.18;;;9.10;;
10637;SDS011;47007;49.252;8.904;2022-12-07T01:07:26;10.23;;;9.10;;
10637;SDS011;47007;49.252;8.904;2022-12-07T01:08:08;10.38;;;9.35;;
10637;SDS011;47007;49.252;8.904;2022-12-07T01:08:50;9.73;;;8.48;;
10637;SDS011;47007;49.252;8.904;2022-12-07T01:09:32;9.73;;;8.73;;
10637;SDS011;47007;49.252;8.904;2022-12-07T01:10:14;9.80;;;8.43;;
10637;SDS011;47007;49.252;8.904;2022-12-07T01:11:06;7.72;;;7.03;;
10637;SDS011;47007;49.252;8.904;2022-12-07T01:11:50;7.70;;;6.90;;
10637;SDS011;47007;49.252;8.904;2022-12-07T01:12:32;7.43;;;6.72;;
10637;SDS011;47007;49.252;8.904;2022-12-07T01:13:14;8.40;;;6.80;;
10637;SDS011;47007;49.252;8.904;2022-12-07T01:13:57;7.78;;;7.07;;
10637;SDS011;47007;49.252;8.904;2022-12-07T01:14:41;8.23;;;7.13;;
10637;SDS011;47007;49.252;8.904;2022-12-07T01:15:23;7.93;;;6.78;;
10637;SDS011;47007;49.252;8.904;2022-12-07T01:16:05;9.20;;;7.47;;
10637;SDS011;47007;49.252;8.904;2022-12-07T01:16:48;7.53;;;6.75;;
10637;SDS011;47007;49.252;8.904;2022-12-07T01:17:30;7.97;;;6.97;;
10637;SDS011;47007;49.252;8.904;2022-12-07T01:18:12;7.07;;;6.35;;
10637;SDS011;47007;49.252;8.904;2022-12-07T01:18:54;7.20;;;6.50;;
10637;SDS011;47007;49.252;8.904;2022-12-07T01:19:36;7.38;;;6.75;;
10637;SDS011;47007;49.252;8.904;2022-12-07T01:20:18;7.53;;;6.57;;
10637;SDS011;47007;49.252;8.904;2022-12-07T01:21:10;7.38;;;6.32;;
10637;SDS011;47007;49.252;8.904;2022-12-07T01:21:53;7.63;;;6.85;;
10637;SDS011;47007;49.252;8.904;2022-12-07T01:22:39;6.57;;;5.97;;
10637;SDS011;47007;49.252;8.904;2022-12-07T01:23:21;7.93;;;7.00;;
10637;SDS011;47007;49.252;8.904;2022-12-07T01:24:03;7.78;;;6.97;;
10637;SDS011;47007;49.252;8.904;2022-12-07T01:24:47;7.25;;;6.50;;
10637;SDS011;47007;49.252;8.904;2022-12-07T01:25:29;7.50;;;6.80;;
10637;SDS011;47007;49.252;8.904;2022-12-07T01:26:11;7.35;;;6.63;;
10637;SDS011;47007;49.252;8.904;2022-12-07T01:26:55;6.75;;;6.07;;
10637;SDS011;47007;49.252;8.904;2022-12-07T01:27:37;6.50;;;5.85;;
10637;SDS011;47007;49.252;8.904;2022-12-07T01:28:19;7.07;;;6.38;;
10637;SDS011;47007;49.252;8.904;2022-12-07T01:29:00;7.13;;;6.40;;
10637;SDS011;47007;49.252;8.904;2022-12-07T01:29:42;6.35;;;5.75;;
10637;SDS011;47007;49.252;8.904;2022-12-07T01:30:24;6.55;;;5.75;;
10637;SDS011;47007;49.252;8.904;2022-12-07T01:31:07;6.95;;;6.25;;
10637;SDS011;47007;49.252;8.904;2022-12-07T01:31:53;7.15;;;6.18;;
10637;SDS011;47007;49.252;8.904;2022-12-07T01:32:35;7.05;;;6.35;;
10637;SDS011;47007;49.252;8.904;2022-12-07T01:33:16;6.40;;;5.80;;
10637;SDS011;47007;49.252;8.904;2022-12-07T01:33:58;6.97;;;6.28;;
10637;SDS011;47007;49.252;8.904;2022-12-07T01:34:41;6.75;;;5.85;;
10637;SDS011;47007;49.252;8.904;2022-12-07T01:35:23;5.68;;;5.18;;
10637;SDS011;47007;49.252;8.904;2022-12-07T01:36:06;6.40;;;5.65;;
10637;SDS011;47007;49.252;8.904;2022-12-07T01:36:55;6.47;;;5.88;;
10637;SDS011;47007;49.252;8.904;2022-12-07T01:37:38;7.63;;;6.32;;
10637;SDS011;47007;49.252;8.904;2022-12-07T01:38:20;6.50;;;5.82;;
10637;SDS011;47007;49.252;8.904;2022-12-07T01:39:03;6.38;;;5.50;;
10637;SDS011;47007;49.252;8.904;2022-12-07T01:39:53;6.30;;;5.70;;
10637;SDS011;47007;49.252;8.904;2022-12-07T01:40:34;5.60;;;5.10;;
10637;SDS011;47007;49.252;8.904;2022-12-07T01:41:16;6.65;;;5.47;;
10637;SDS011;47007;49.252;8.904;2022-12-07T01:41:58;6.57;;;5.95;;
10637;SDS011;47007;49.252;8.904;2022-12-07T01:42:40;6.32;;;5.72;;
10637;SDS011;47007;49.252;8.904;2022-12-07T01:43:21;5.50;;;5.00;;
10637;SDS011;47007;49.252;8.904;2022-12-07T01:45:59;6.25;;;5.65;;
10637;SDS011;47007;49.252;8.904;2022-12-07T01:46:51;6.53;;;5.93;;
10637;SDS011;47007;49.252;8.904;2022-12-07T01:47:35;7.03;;;6.43;;
10637;SDS011;47007;49.252;8.904;2022-12-07T01:48:18;6.72;;;6.03;;
10637;SDS011;47007;49.252;8.904;2022-12-07T01:49:08;7.20;;;6.50;;
10637;SDS011;47007;49.252;8.904;2022-12-07T01:49:56;6.63;;;6.00;;
10637;SDS011;47007;49.252;8.904;2022-12-07T01:50:38;7.15;;;6.45;;
10637;SDS011;47007;49.252;8.904;2022-12-07T01:51:21;7.53;;;6.40;;
10637;SDS011;47007;49.252;8.904;2022-12-07T01:53:08;7.10;;;6.40;;
10637;SDS011;47007;49.252;8.904;2022-12-07T01:53:51;6.50;;;5.90;;
10637;SDS011;47007;49.252;8.904;2022-12-07T01:54:33;7.25;;;6.30;;
10637;SDS011;47007;49.252;8.904;2022-12-07T01:55:16;6.30;;;5.70;;
10637;SDS011;47007;49.252;8.904;2022-12-07T01:55:58;7.43;;;6.72;;
10637;SDS011;47007;49.252;8.904;2022-12-07T01:56:41;6.97;;;6.28;;
10637;SDS011;47007;49.252;8.904;2022-12-07T01:57:28;7.32;;;6.57;;
10637;SDS011;47007;49.252;8.904;2022-12-07T01:58:12;7.55;;;6.85;;
10637;SDS011;47007;49.252;8.904;2022-12-07T01:58:54;6.47;;;5.88;;
10637;SDS011;47007;49.252;8.904;2022-12-07T01:59:38;6.32;;;5.80;;
10637;SDS011;47007;49.252;8.904;2022-12-07T02:00:20;6.57;;;5.97;;
10637;SDS011;47007;49.252;8.904;2022-12-07T02:01:02;6.88;;;6.28;;
10637;SDS011;47007;49.252;8.904;2022-12-07T02:01:45;7.20;;;6.50;;
10637;SDS011;47007;49.252;8.904;2022-12-07T02:02:31;6.45;;;5.90;;
10637;SDS011;47007;49.252;8.904;2022-12-07T02:03:20;6.63;;;6.03;;
10637;SDS011;47007;49.252;8.904;2022-12-07T02:04:07;6.22;;;5.63;;
10637;SDS011;47007;49.252;8.904;2022-12-07T02:04:50;6.90;;;6.10;;
10637;SDS011;47007;49.252;8.904;2022-12-07T02:05:35;6.55;;;5.72;;
10637;SDS011;47007;49.252;8.904;2022-12-07T02:06:20;6.07;;;5.43;;
10637;SDS011;47007;49.252;8.904;2022-12-07T02:07:05;7.75;;;5.90;;
10637;SDS011;47007;49.252;8.904;2022-12-07T02:07:47;6.30;;;5.70;;
10637;SDS011;47007;49.252;8.904;2022-12-07T02:08:30;6.57;;;5.88;;
10637;SDS011;47007;49.252;8.904;2022-12-07T02:11:39;6.82;;;6.10;;
10637;SDS011;47007;49.252;8.904;2022-12-07T02:12:22;7.82;;;6.28;;
10637;SDS011;47007;49.252;8.904;2022-12-07T02:13:48;6.65;;;6.05;;
10637;SDS011;47007;49.252;8.904;2022-12-07T02:14:12;7.72;;;6.15;;
10637;SDS011;47007;49.252;8.904;2022-12-07T02:14:53;7.03;;;6.32;;
10637;SDS011;47007;49.252;8.904;2022-12-07T02:15:38;7.03;;;6.28;;
10637;SDS011;47007;49.252;8.904;2022-12-07T02:21:43;6.13;;;5.53;;
10637;SDS011;47007;49.252;8.904;2022-12-07T02:27:58;6.80;;;5.93;;
10637;SDS011;47007;49.252;8.904;2022-12-07T02:30:06;7.60;;;5.95;;
10637;SDS011;47007;49.252;8.904;2022-12-07T02:30:51;7.90;;;6.40;;
10637;SDS011;47007;49.252;8.904;2022-12-07T02:31:36;7.40;;;6.70;;
10637;SDS011;47007;49.252;8.904;2022-12-07T02:32:26;7.38;;;6.60;;
10637;SDS011;47007;49.252;8.904;2022-12-07T02:33:19;7.57;;;6.53;;
10637;SDS011;47007;49.252;8.904;2022-12-07T02:34:17;7.30;;;6.50;;
10637;SDS011;47007;49.252;8.904;2022-12-07T02:36:09;7.25;;;6.55;;
10637;SDS011;47007;49.252;8.904;2022-12-07T02:36:56;6.97;;;6.35;;
10637;SDS011;47007;49.252;8.904;2022-12-07T02:38:37;7.28;;;6.57;;
10637;SDS011;47007;49.252;8.904;2022-12-07T02:39:28;6.70;;;6.10;;
10637;SDS011;47007;49.252;8.904;2022-12-07T02:42:07;8.18;;;7.38;;
10637;SDS011;47007;49.252;8.904;2022-12-07T02:42:57;9.55;;;7.93;;
10637;SDS011;47007;49.252;8.904;2022-12-07T02:43:46;8.65;;;7.82;;
10637;SDS011;47007;49.252;8.904;2022-12-07T02:44:32;8.65;;;7.45;;
10637;SDS011;47007;49.252;8.904;2022-12-07T02:45:15;8.98;;;8.07;;
10637;SDS011;47007;49.252;8.904;2022-12-07T02:46:04;10.57;;;8.68;;
10637;SDS011;47007;49.252;8.904;2022-12-07T02:46:51;9.82;;;8.82;;
10637;SDS011;47007;49.252;8.904;2022-12-07T02:47:36;10.60;;;9.00;;
10637;SDS011;47007;49.252;8.904;2022-12-07T02:48:18;11.50;;;9.20;;
10637;SDS011;47007;49.252;8.904;2022-12-07T02:49:02;10.35;;;9.25;;
10637;SDS011;47007;49.252;8.904;2022-12-07T02:49:44;11.40;;;9.10;;
10637;SDS011;47007;49.252;8.904;2022-12-07T02:50:27;11.60;;;9.32;;
10637;SDS011;47007;49.252;8.904;2022-12-07T02:51:09;10.38;;;8.98;;
10637;SDS011;47007;49.252;8.904;2022-12-07T02:51:51;10.73;;;9.25;;
10637;SDS011;47007;49.252;8.904;2022-12-07T02:52:33;9.60;;;8.57;;
10637;SDS011;47007;49.252;8.904;2022-12-07T02:53:38;9.13;;;8.18;;
10637;SDS011;47007;49.252;8.904;2022-12-07T02:54:21;8.95;;;8.05;;
10637;SDS011;47007;49.252;8.904;2022-12-07T02:55:04;8.90;;;8.00;;
10637;SDS011;47007;49.252;8.904;2022-12-07T02:55:47;8.30;;;7.50;;
10637;SDS011;47007;49.252;8.904;2022-12-07T02:57:24;9.23;;;7.47;;
10637;SDS011;47007;49.252;8.904;2022-12-07T03:00:20;9.15;;;7.38;;
10637;SDS011;47007;49.252;8.904;2022-12-07T03:02:13;7.40;;;6.65;;
10637;SDS011;47007;49.252;8.904;2022-12-07T03:03:07;7.88;;;7.07;;
10637;SDS011;47007;49.252;8.904;2022-12-07T03:03:57;7.90;;;6.80;;
10637;SDS011;47007;49.252;8.904;2022-12-07T03:05:13;7.72;;;6.95;;
10637;SDS011;47007;49.252;8.904;2022-12-07T03:06:11;7.68;;;6.80;;
10637;SDS011;47007;49.252;8.904;2022-12-07T03:07:45;6.93;;;6.22;;
10637;SDS011;47007;49.252;8.904;2022-12-07T03:09:25;8.65;;;7.25;;
10637;SDS011;47007;49.252;8.904;2022-12-07T03:10:16;7.63;;;6.93;;
10637;SDS011;47007;49.252;8.904;2022-12-07T03:11:07;8.00;;;6.80;;
10637;SDS011;47007;49.252;8.904;2022-12-07T03:11:53;7.93;;;7.13;;
10637;SDS011;47007;49.252;8.904;2022-12-07T03:13:05;8.23;;;7.43;;
10637;SDS011;47007;49.252;8.904;2022-12-07T03:13:50;7.60;;;6.90;;
10637;SDS011;47007;49.252;8.904;2022-12-07T03:14:56;10.60;;;7.90;;
10637;SDS011;47007;49.252;8.904;2022-12-07T03:15:46;9.15;;;8.07;;
10637;SDS011;47007;49.252;8.904;2022-12-07T03:16:41;9.50;;;7.90;;
10637;SDS011;47007;49.252;8.904;2022-12-07T03:17:30;8.80;;;7.90;;
10637;SDS011;47007;49.252;8.904;2022-12-07T03:18:17;8.90;;;8.00;;
10637;SDS011;47007;49.252;8.904;2022-12-07T03:19:10;9.13;;;8.13;;
10637;SDS011;47007;49.252;8.904;2022-12-07T03:19:57;9.07;;;8.18;;
10637;SDS011;47007;49.252;8.904;2022-12-07T03:20:43;9.27;;;8.38;;
10637;SDS011;47007;49.252;8.904;2022-12-07T03:21:36;9.30;;;8.20;;
10637;SDS011;47007;49.252;8.904;2022-12-07T03:22:21;9.13;;;8.23;;
10637;SDS011;47007;49.252;8.904;2022-12-07T03:23:04;9.40;;;8.15;;
10637;SDS011;47007;49.252;8.904;2022-12-07T03:23:52;8.43;;;7.63;;
10637;SDS011;47007;49.252;8.904;2022-12-07T03:24:39;8.18;;;7.38;;
10637;SDS011;47007;49.252;8.904;2022-12-07T03:25:27;7.63;;;6.85;;
10637;SDS011;47007;49.252;8.904;2022-12-07T03:26:11;8.82;;;8.00;;
10637;SDS011;47007;49.252;8.904;2022-12-07T03:27:01;8.32;;;7.47;;
10637;SDS011;47007;49.252;8.904;2022-12-07T03:27:51;8.13;;;7.32;;
10637;SDS011;47007;49.252;8.904;2022-12-07T03:28:38;7.90;;;6.95;;
10637;SDS011;47007;49.252;8.904;2022-12-07T03:29:27;8.25;;;7.45;;
10637;SDS011;47007;49.252;8.904;2022-12-07T03:30:12;7.80;;;7.10;;
10637;SDS011;47007;49.252;8.904;2022-12-07T03:31:16;7.65;;;6.95;;
10637;SDS011;47007;49.252;8.904;2022-12-07T03:32:02;7.88;;;7.10;;
10637;SDS011;47007;49.252;8.904;2022-12-07T03:32:49;8.20;;;7.40;;
10637;SDS011;47007;49.252;8.904;2022-12-07T03:33:39;7.60;;;6.90;;
10637;SDS011;47007;49.252;8.904;2022-12-07T03:34:32;7.80;;;7.00;;
10637;SDS011;47007;49.252;8.904;2022-12-07T03:35:20;7.07;;;6.38;;
10637;SDS011;47007;49.252;8.904;2022-12-07T03:36:15;6.93;;;6.30;;
10637;SDS011;47007;49.252;8.904;2022-12-07T03:37:06;7.15;;;6.45;;
10637;SDS011;47007;49.252;8.904;2022-12-07T03:38:40;7.25;;;6.55;;
10637;SDS011;47007;49.252;8.904;2022-12-07T03:40:23;8.00;;;7.20;;
10637;SDS011;47007;49.252;8.904;2022-12-07T03:41:12;7.22;;;6.53;;
10637;SDS011;47007;49.252;8.904;2022-12-07T03:42:00;7.07;;;6.38;;
10637;SDS011;47007;49.252;8.904;2022-12-07T03:42:46;7.18;;;6.47;;
10637;SDS011;47007;49.252;8.904;2022-12-07T03:43:29;8.00;;;6.75;;
10637;SDS011;47007;49.252;8.904;2022-12-07T03:44:12;8.27;;;7.38;;
10637;SDS011;47007;49.252;8.904;2022-12-07T03:44:56;7.25;;;6.55;;
10637;SDS011;47007;49.252;8.904;2022-12-07T03:45:39;7.65;;;6.95;;
10637;SDS011;47007;49.252;8.904;2022-12-07T03:48:14;8.13;;;7.32;;
10637;SDS011;47007;49.252;8.904;2022-12-07T03:52:32;8.18;;;7.38;;
10637;SDS011;47007;49.252;8.904;2022-12-07T03:53:24;8.52;;;7.25;;
10637;SDS011;47007;49.252;8.904;2022-12-07T03:55:06;8.85;;;7.95;;
10637;SDS011;47007;49.252;8.904;2022-12-07T03:55:52;10.05;;;7.80;;
10637;SDS011;47007;49.252;8.904;2022-12-07T03:56:36;9.30;;;8.32;;
10637;SDS011;47007;49.252;8.904;2022-12-07T03:57:20;8.90;;;7.93;;
10637;SDS011;47007;49.252;8.904;2022-12-07T03:58:05;7.80;;;7.10;;
10637;SDS011;47007;49.252;8.904;2022-12-07T03:58:51;7.93;;;7.13;;
10637;SDS011;47007;49.252;8.904;2022-12-07T03:59:35;7.72;;;6.93;;
10637;SDS011;47007;49.252;8.904;2022-12-07T04:00:18;7.60;;;6.90;;
10637;SDS011;47007;49.252;8.904;2022-12-07T04:01:00;7.20;;;6.50;;
10637;SDS011;47007;49.252;8.904;2022-12-07T04:01:45;8.23;;;7.43;;
10637;SDS011;47007;49.252;8.904;2022-12-07T04:02:34;7.75;;;6.97;;
10637;SDS011;47007;49.252;8.904;2022-12-07T04:03:17;8.68;;;7.50;;
10637;SDS011;47007;49.252;8.904;2022-12-07T04:03:58;7.93;;;7.15;;
10637;SDS011;47007;49.252;8.904;2022-12-07T04:04:40;7.25;;;6.55;;
10637;SDS011;47007;49.252;8.904;2022-12-07T04:05:23;7.13;;;6.45;;
10637;SDS011;47007;49.252;8.904;2022-12-07T04:06:06;8.27;;;7.10;;
10637;SDS011;47007;49.252;8.904;2022-12-07T04:06:48;7.70;;;6.70;;
10637;SDS011;47007;49.252;8.904;2022-12-07T04:07:30;8.07;;;7.28;;
10637;SDS011;47007;49.252;8.904;2022-12-07T04:08:11;8.02;;;7.22;;
10637;SDS011;47007;49.252;8.904;2022-12-07T04:08:53;7.88;;;6.93;;
10637;SDS011;47007;49.252;8.904;2022-12-07T04:09:35;7.72;;;7.03;;
10637;SDS011;47007;49.252;8.904;2022-12-07T04:10:17;8.02;;;7.22;;
10637;SDS011;47007;49.252;8.904;2022-12-07T04:10:59;7.80;;;7.00;;
10637;SDS011;47007;49.252;8.904;2022-12-07T04:11:41;8.05;;;7.35;;
10637;SDS011;47007;49.252;8.904;2022-12-07T04:12:22;7.80;;;7.07;;
10637;SDS011;47007;49.252;8.904;2022-12-07T04:13:04;8.20;;;7.30;;
10637;SDS011;47007;49.252;8.904;2022-12-07T04:13:46;8.10;;;7.25;;
10637;SDS011;47007;49.252;8.904;2022-12-07T04:14:46;7.80;;;7.00;;
10637;SDS011;47007;49.252;8.904;2022-12-07T04:15:28;7.70;;;6.97;;
10637;SDS011;47007;49.252;8.904;2022-12-07T04:16:10;7.70;;;7.00;;
10637;SDS011;47007;49.252;8.904;2022-12-07T04:16:52;8.65;;;7.75;;
10637;SDS011;47007;49.252;8.904;2022-12-07T04:17:38;8.07;;;7.30;;
10637;SDS011;47007;49.252;8.904;2022-12-07T04:18:20;8.43;;;7.63;;
10637;SDS011;47007;49.252;8.904;2022-12-07T04:19:02;8.35;;;7.45;;
10637;SDS011;47007;49.252;8.904;2022-12-07T04:19:43;7.55;;;6.82;;
10637;SDS011;47007;49.252;8.904;2022-12-07T04:20:25;7.82;;;7.13;;
10637;SDS011;47007;49.252;8.904;2022-12-07T04:21:07;7.85;;;7.15;;
10637;SDS011;47007;49.252;8.904;2022-12-07T04:21:48;8.55;;;7.75;;
10637;SDS011;47007;49.252;8.904;2022-12-07T04:22:30;8.23;;;7.43;;
10637;SDS011;47007;49.252;8.904;2022-12-07T04:23:12;8.27;;;7.32;;
10637;SDS011;47007;49.252;8.904;2022-12-07T04:23:54;8.80;;;7.90;;
10637;SDS011;47007;49.252;8.904;2022-12-07T04:24:35;8.13;;;7.18;;
10637;SDS011;47007;49.252;8.904;2022-12-07T04:25:17;8.88;;;7.97;;
10637;SDS011;47007;49.252;8.904;2022-12-07T04:25:59;8.63;;;7.72;;
10637;SDS011;47007;49.252;8.904;2022-12-07T04:26:41;8.00;;;6.97;;
10637;SDS011;47007;49.252;8.904;2022-12-07T04:27:23;8.93;;;8.02;;
10637;SDS011;47007;49.252;8.904;2022-12-07T04:28:05;9.05;;;7.65;;
10637;SDS011;47007;49.252;8.904;2022-12-07T04:28:46;9.73;;;7.78;;
10637;SDS011;47007;49.252;8.904;2022-12-07T04:29:28;8.18;;;7.38;;
10637;SDS011;47007;49.252;8.904;2022-12-07T04:30:10;7.78;;;6.97;;
10637;SDS011;47007;49.252;8.904;2022-12-07T04:30:52;7.97;;;6.93;;
10637;SDS011;47007;49.252;8.904;2022-12-07T04:31:34;7.57;;;6.82;;
10637;SDS011;47007;49.252;8.904;2022-12-07T04:32:16;7.95;;;7.15;;
10637;SDS011;47007;49.252;8.904;2022-12-07T04:32:57;7.75;;;7.05;;
10637;SDS011;47007;49.252;8.904;2022-12-07T04:33:39;7.10;;;6.45;;
10637;SDS011;47007;49.252;8.904;2022-12-07T04:34:21;7.47;;;6.78;;
10637;SDS011;47007;49.252;8.904;2022-12-07T04:35:03;7.85;;;7.10;;
10637;SDS011;47007;49.252;8.904;2022-12-07T04:35:45;7.75;;;6.95;;
10637;SDS011;47007;49.252;8.904;2022-12-07T04:36:27;8.40;;;7.60;;
10637;SDS011;47007;49.252;8.904;2022-12-07T04:37:09;7.45;;;6.65;;
10637;SDS011;47007;49.252;8.904;2022-12-07T04:37:50;7.90;;;7.10;;
10637;SDS011;47007;49.252;8.904;2022-12-07T04:38:32;7.95;;;7.25;;
10637;SDS011;47007;49.252;8.904;2022-12-07T04:39:19;7.47;;;6.63;;
10637;SDS011;47007;49.252;8.904;2022-12-07T04:40:03;7.60;;;6.82;;
10637;SDS011;47007;49.252;8.904;2022-12-07T04:40:45;7.55;;;6.80;;
10637;SDS011;47007;49.252;8.904;2022-12-07T04:41:27;7.93;;;7.22;;
10637;SDS011;47007;49.252;8.904;2022-12-07T04:42:09;7.47;;;6.80;;
10637;SDS011;47007;49.252;8.904;2022-12-07T04:42:51;7.45;;;6.75;;
10637;SDS011;47007;49.252;8.904;2022-12-07T04:43:33;8.32;;;7.53;;
10637;SDS011;47007;49.252;8.904;2022-12-07T04:44:15;7.85;;;7.03;;
10637;SDS011;47007;49.252;8.904;2022-12-07T04:44:58;7.35;;;6.65;;
10637;SDS011;47007;49.252;8.904;2022-12-07T04:45:44;8.40;;;7.43;;
10637;SDS011;47007;49.252;8.904;2022-12-07T04:46:28;7.72;;;6.97;;
10637;SDS011;47007;49.252;8.904;2022-12-07T04:47:11;7.82;;;7.00;;
10637;SDS011;47007;49.252;8.904;2022-12-07T04:47:53;8.23;;;7.43;;
10637;SDS011;47007;49.252;8.904;2022-12-07T04:48:35;8.63;;;7.72;;
10637;SDS011;47007;49.252;8.904;2022-12-07T04:49:17;8.70;;;7.80;;
10637;SDS011;47007;49.252;8.904;2022-12-07T04:49:59;8.65;;;7.85;;
10637;SDS011;47007;49.252;8.904;2022-12-07T04:50:42;8.10;;;7.30;;
10637;SDS011;47007;49.252;8.904;2022-12-07T04:51:28;8.43;;;7.60;;
10637;SDS011;47007;49.252;8.904;2022-12-07T04:52:11;8.65;;;7.70;;
10637;SDS011;47007;49.252;8.904;2022-12-07T04:52:52;9.23;;;8.30;;
10637;SDS011;47007;49.252;8.904;2022-12-07T04:53:34;8.15;;;7.35;;
10637;SDS011;47007;49.252;8.904;2022-12-07T04:54:16;8.32;;;7.53;;
10637;SDS011;47007;49.252;8.904;2022-12-07T04:54:58;9.60;;;8.60;;
10637;SDS011;47007;49.252;8.904;2022-12-07T04:55:40;9.27;;;8.23;;
10637;SDS011;47007;49.252;8.904;2022-12-07T04:56:22;9.48;;;8.57;;
10637;SDS011;47007;49.252;8.904;2022-12-07T04:57:05;8.85;;;8.05;;
10637;SDS011;47007;49.252;8.904;2022-12-07T04:57:46;9.73;;;8.73;;
10637;SDS011;47007;49.252;8.904;2022-12-07T04:58:28;10.10;;;9.10;;
10637;SDS011;47007;49.252;8.904;2022-12-07T04:59:10;10.18;;;9.18;;
10637;SDS011;47007;49.252;8.904;2022-12-07T04:59:53;9.80;;;8.80;;
10637;SDS011;47007;49.252;8.904;2022-12-07T05:00:35;9.73;;;8.82;;
10637;SDS011;47007;49.252;8.904;2022-12-07T05:01:17;9.05;;;8.20;;
10637;SDS011;47007;49.252;8.904;2022-12-07T05:01:59;9.70;;;8.70;;
10637;SDS011;47007;49.252;8.904;2022-12-07T05:02:41;9.63;;;8.65;;